Jones, Oklahoma
Current Conditions -  °F | °C
As of 8:58 PM on Friday 28 Nov 2014 (Local Time) from KTIK Reporting Station
Clear Clear  
Wind Chill: 57°   Ceiling: Unl
Heat Index: 57°   Visibility: 10mi
Dew Point: 45°   Wind: 17mph
Humidity: 64%   Direction: 180°S
Pressure: 29.86"   Gusts: NA
Location:  35.57°N, 97.29°W
Report Text: KTIK 290258Z AUTO 18015KT 10SM CLR 14/07 A2986 RMK AO2 SLP117 T01390072 58009
Loading
Personal Weather Stations






























Interactive Weather Map New forecast layout! Learn more

10-Day Weather Forecast

Advertisements
Track Severe Weather on mobile